createdAt,value
2018-05-03T00:00:26.734Z,32.17
2018-05-03T00:02:53.478Z,37.63
2018-05-03T00:05:20.218Z,28.20
2018-05-03T00:07:46.908Z,27.33
2018-05-03T00:10:13.611Z,31.37
2018-05-03T00:12:40.289Z,34.10
2018-05-03T00:15:06.897Z,28.33
2018-05-03T00:17:33.641Z,28.47
2018-05-03T00:20:00.391Z,33.10
2018-05-03T00:22:27.035Z,32.83
2018-05-03T00:24:53.774Z,31.77
2018-05-03T00:27:20.416Z,30.40
2018-05-03T00:29:47.170Z,31.30
2018-05-03T00:32:13.821Z,33.07
2018-05-03T00:34:40.452Z,28.87
2018-05-03T00:37:07.207Z,32.83
2018-05-03T00:39:33.941Z,34.77
2018-05-03T00:42:00.689Z,30.63
2018-05-03T00:44:27.231Z,31.17
2018-05-03T00:46:53.974Z,32.37
2018-05-03T00:49:20.724Z,38.43
2018-05-03T00:51:47.463Z,37.17
2018-05-03T00:54:26.189Z,37.67
2018-05-03T00:56:52.924Z,42.57
2018-05-03T00:59:19.674Z,41.80
2018-05-03T01:01:46.356Z,39.50
2018-05-03T01:04:13.070Z,35.83
2018-05-03T01:06:39.712Z,34.27
2018-05-03T01:09:06.571Z,35.30
2018-05-03T01:11:33.302Z,35.90
2018-05-03T01:14:00.052Z,36.40
2018-05-03T01:16:26.798Z,32.70
2018-05-03T01:18:53.544Z,31.50
2018-05-03T01:21:20.185Z,29.77
2018-05-03T01:23:46.927Z,34.23
2018-05-03T01:26:13.565Z,32.30
2018-05-03T01:28:40.213Z,36.57
2018-05-03T01:31:07.056Z,34.47
2018-05-03T01:33:33.805Z,43.77
2018-05-03T01:36:12.629Z,34.90
2018-05-03T01:38:39.368Z,36.27
2018-05-03T01:41:06.221Z,33.50
2018-05-03T01:43:32.973Z,31.03
2018-05-03T01:45:59.712Z,28.27
2018-05-03T01:48:26.450Z,25.23
2018-05-03T01:50:53.203Z,32.40
2018-05-03T01:53:19.942Z,32.20
2018-05-03T01:55:46.602Z,34.87
2018-05-03T01:58:13.335Z,36.63
2018-05-03T02:00:39.978Z,36.40
2018-05-03T02:03:06.577Z,34.17
2018-05-03T02:05:33.369Z,39.13
2018-05-03T02:08:00.110Z,35.10
2018-05-03T02:10:26.859Z,34.87
2018-05-03T02:12:53.602Z,33.70
2018-05-03T02:15:20.353Z,35.80
2018-05-03T02:17:47.001Z,35.27
2018-05-03T02:20:14.054Z,34.83
2018-05-03T02:22:40.797Z,33.07
2018-05-03T02:25:07.534Z,32.93
2018-05-03T02:27:34.287Z,32.20
2018-05-03T02:30:01.030Z,31.87
2018-05-03T02:32:27.776Z,31.50
2018-05-03T02:34:54.520Z,32.43
2018-05-03T02:37:21.369Z,36.50
2018-05-03T02:39:48.108Z,33.37
2018-05-03T02:42:14.861Z,32.53
2018-05-03T02:44:42.633Z,31.20
2018-05-03T02:47:09.374Z,36.23
2018-05-03T02:49:36.121Z,35.27
2018-05-03T02:52:02.862Z,32.50
2018-05-03T02:54:29.614Z,32.73
2018-05-03T02:57:08.639Z,33.10
2018-05-03T02:59:47.454Z,31.73
2018-05-03T03:05:31.708Z,33.83
2018-05-03T03:14:49.012Z,31.77
2018-05-03T03:17:33.771Z,32.47
2018-05-03T03:23:38.172Z,36.50
2018-05-03T03:29:30.915Z,41.60
2018-05-03T03:32:14.859Z,36.67
2018-05-03T03:34:41.696Z,34.20
2018-05-03T03:37:32.286Z,35.77
2018-05-03T03:40:17.051Z,37.57
2018-05-03T03:45:43.180Z,41.77
2018-05-03T03:48:09.935Z,38.13
2018-05-03T03:50:36.675Z,41.20
2018-05-03T03:53:03.436Z,39.77
2018-05-03T03:55:30.164Z,40.37
2018-05-03T03:57:56.913Z,41.60
2018-05-03T04:00:24.675Z,36.20
2018-05-03T04:02:51.427Z,36.13
2018-05-03T04:05:18.009Z,37.77
2018-05-03T04:07:44.719Z,38.70
2018-05-03T04:10:11.397Z,43.30
2018-05-03T04:12:38.099Z,42.53
2018-05-03T04:15:04.850Z,38.10
2018-05-03T04:20:45.614Z,38.27
2018-05-03T04:23:31.605Z,42.30
2018-05-03T04:26:01.926Z,41.37
2018-05-03T04:28:28.674Z,42.03
2018-05-03T04:30:55.417Z,37.70
2018-05-03T04:33:22.168Z,37.93
2018-05-03T04:35:48.846Z,36.90
2018-05-03T04:38:15.557Z,38.60
2018-05-03T04:40:42.199Z,43.30
2018-05-03T04:43:08.939Z,49.10
2018-05-03T04:45:35.690Z,40.93
2018-05-03T04:48:02.434Z,37.33
2018-05-03T04:50:29.221Z,40.53
2018-05-03T04:52:57.284Z,42.87
2018-05-03T04:55:23.897Z,44.93
2018-05-03T04:57:51.087Z,33.60
2018-05-03T05:00:17.796Z,35.97
2018-05-03T05:02:44.438Z,33.63
2018-05-03T05:05:11.087Z,32.80
2018-05-03T05:07:37.826Z,40.10
2018-05-03T05:10:04.482Z,32.47
2018-05-03T05:12:31.070Z,33.23
2018-05-03T05:14:57.863Z,33.33
2018-05-03T05:17:24.499Z,33.93
2018-05-03T05:19:51.253Z,34.07
2018-05-03T05:22:18.100Z,34.50
2018-05-03T05:24:44.842Z,34.57
2018-05-03T05:27:11.585Z,30.43
2018-05-03T05:29:38.337Z,30.80
2018-05-03T05:32:05.077Z,32.17
2018-05-03T05:34:31.825Z,33.43
2018-05-03T05:36:58.669Z,34.33
2018-05-03T05:39:25.361Z,34.90
2018-05-03T05:41:52.159Z,31.30
2018-05-03T05:44:18.920Z,31.50
2018-05-03T05:46:45.548Z,30.93
2018-05-03T05:49:12.303Z,28.93
2018-05-03T05:51:39.043Z,32.27
2018-05-03T05:54:05.793Z,31.70
2018-05-03T05:56:32.537Z,34.40
2018-05-03T05:58:59.382Z,29.83
2018-05-03T06:01:26.128Z,31.20
2018-05-03T06:03:52.881Z,29.20
2018-05-03T06:06:19.727Z,28.73
2018-05-03T06:08:46.466Z,31.87
2018-05-03T06:11:13.238Z,33.57
2018-05-03T06:13:39.966Z,30.57
2018-05-03T06:16:06.701Z,29.93
2018-05-03T06:18:33.451Z,30.87
2018-05-03T06:21:00.302Z,30.53
2018-05-03T06:23:26.941Z,27.90
2018-05-03T06:25:53.753Z,28.47
2018-05-03T06:28:20.434Z,27.23
2018-05-03T06:30:47.176Z,31.40
2018-05-03T06:33:13.929Z,29.43
2018-05-03T06:35:40.666Z,31.17
2018-05-03T06:38:07.415Z,31.50
2018-05-03T06:40:34.060Z,28.73
2018-05-03T06:43:00.858Z,27.33
2018-05-03T06:45:27.452Z,30.10
2018-05-03T06:47:54.149Z,26.70
2018-05-03T06:50:20.829Z,29.83
2018-05-03T06:52:48.303Z,30.17
2018-05-03T06:55:15.041Z,28.27
2018-05-03T06:57:41.796Z,28.00
2018-05-03T07:00:08.534Z,28.10
2018-05-03T07:02:36.316Z,30.13
2018-05-03T07:05:03.972Z,28.47
2018-05-03T07:07:31.736Z,31.73
2018-05-03T07:09:58.568Z,30.73
2018-05-03T07:12:25.158Z,31.23
2018-05-03T07:14:51.863Z,28.57
2018-05-03T07:17:18.621Z,28.20
2018-05-03T07:19:45.363Z,27.07
2018-05-03T07:22:12.120Z,29.23
2018-05-03T07:24:38.853Z,29.13
2018-05-03T07:27:06.531Z,27.97
2018-05-03T07:29:33.396Z,29.77
2018-05-03T07:32:00.016Z,29.97
2018-05-03T07:34:26.765Z,28.50
2018-05-03T07:36:53.508Z,27.43
2018-05-03T07:39:20.249Z,28.47
2018-05-03T07:41:46.940Z,28.07
2018-05-03T07:44:14.660Z,27.27
2018-05-03T07:46:41.408Z,30.13
2018-05-03T07:49:08.149Z,25.03
2018-05-03T07:51:34.904Z,26.23
2018-05-03T07:54:01.643Z,25.53
2018-05-03T07:56:28.383Z,28.83
2018-05-03T07:58:55.136Z,28.23
2018-05-03T08:01:21.874Z,26.67
2018-05-03T08:03:48.725Z,30.30
2018-05-03T08:06:15.475Z,25.10
2018-05-03T08:08:42.220Z,24.40
2018-05-03T08:11:09.067Z,25.30
2018-05-03T08:13:35.812Z,24.30
2018-05-03T08:16:02.563Z,27.73
2018-05-03T08:18:29.402Z,22.73
2018-05-03T08:20:56.152Z,25.40
2018-05-03T08:23:22.901Z,26.43
2018-05-03T08:25:49.744Z,22.20
2018-05-03T08:28:16.384Z,25.60
2018-05-03T08:30:43.135Z,23.53
2018-05-03T08:33:09.917Z,23.13
2018-05-03T08:35:36.628Z,24.30
2018-05-03T08:38:03.477Z,24.70
2018-05-03T08:40:30.220Z,23.20
2018-05-03T08:42:56.965Z,23.83
2018-05-03T08:45:23.710Z,21.70
2018-05-03T08:47:50.451Z,24.80
2018-05-03T08:50:17.201Z,20.57
2018-05-03T08:52:43.951Z,23.50
2018-05-03T08:55:10.795Z,22.20
2018-05-03T08:57:37.454Z,19.57
2018-05-03T09:00:04.283Z,22.67
2018-05-03T09:02:31.139Z,23.90
2018-05-03T09:04:57.875Z,19.27
2018-05-03T09:07:24.579Z,21.50
2018-05-03T09:09:51.367Z,20.80
2018-05-03T09:12:18.120Z,27.23
2018-05-03T09:14:44.866Z,20.27
2018-05-03T09:17:11.709Z,19.73
2018-05-03T09:19:38.453Z,16.17
2018-05-03T09:22:05.200Z,21.43
2018-05-03T09:24:32.971Z,21.23
2018-05-03T09:27:00.535Z,17.30
2018-05-03T09:29:27.177Z,18.33
2018-05-03T09:31:53.926Z,18.23
2018-05-03T09:34:20.667Z,18.07
2018-05-03T09:36:47.310Z,16.17
2018-05-03T09:39:14.147Z,15.13
2018-05-03T09:41:40.806Z,16.50
2018-05-03T09:44:07.441Z,21.17
2018-05-03T09:46:34.290Z,18.27
2018-05-03T09:49:01.042Z,15.97
2018-05-03T09:51:27.686Z,14.97
2018-05-03T09:53:54.422Z,21.20
2018-05-03T09:56:21.172Z,15.63
2018-05-03T09:58:47.811Z,18.50
2018-05-03T10:01:14.559Z,13.87
2018-05-03T10:03:41.304Z,15.07
2018-05-03T10:06:08.049Z,13.27
2018-05-03T10:08:34.796Z,16.50
2018-05-03T10:11:01.489Z,16.63
2018-05-03T10:13:28.192Z,12.23
2018-05-03T10:15:54.993Z,14.00
2018-05-03T10:18:21.569Z,14.43
2018-05-03T10:20:48.322Z,13.23
2018-05-03T10:23:15.176Z,13.27
2018-05-03T10:25:41.914Z,12.07
2018-05-03T10:28:08.658Z,12.67
2018-05-03T10:30:35.353Z,14.23
2018-05-03T10:33:02.055Z,12.67
2018-05-03T10:35:28.700Z,11.50
2018-05-03T10:37:55.535Z,14.60
2018-05-03T10:40:22.288Z,16.73
2018-05-03T10:42:49.031Z,11.73
2018-05-03T10:45:15.878Z,19.50
2018-05-03T10:47:42.519Z,19.40
2018-05-03T10:50:09.272Z,18.50
2018-05-03T10:52:36.010Z,23.40
2018-05-03T10:55:02.765Z,22.33
2018-05-03T10:57:29.508Z,20.63
2018-05-03T10:59:56.254Z,21.27
2018-05-03T11:02:22.997Z,19.00
2018-05-03T11:04:49.734Z,20.23
2018-05-03T11:07:16.490Z,19.53
2018-05-03T11:09:43.236Z,19.07
2018-05-03T11:12:09.919Z,23.47
2018-05-03T11:14:36.619Z,21.00
2018-05-03T11:17:03.370Z,19.50
2018-05-03T11:19:30.113Z,22.50
2018-05-03T11:21:56.960Z,19.93
2018-05-03T11:24:23.701Z,19.33
2018-05-03T11:26:50.426Z,22.83
2018-05-03T11:29:17.192Z,19.30
2018-05-03T11:31:43.945Z,18.67
2018-05-03T11:34:10.683Z,19.93
2018-05-03T11:36:37.541Z,19.13
2018-05-03T11:39:04.278Z,16.93
2018-05-03T11:41:31.034Z,17.33
2018-05-03T11:43:57.770Z,14.57
2018-05-03T11:46:24.519Z,12.70
2018-05-03T11:48:51.326Z,16.87
2018-05-03T11:51:18.011Z,17.50
2018-05-03T11:53:44.751Z,17.20
2018-05-03T11:56:11.501Z,15.33
2018-05-03T11:58:38.247Z,14.73
2018-05-03T12:01:04.996Z,16.33
2018-05-03T12:03:31.637Z,15.47
2018-05-03T12:05:58.387Z,17.97
2018-05-03T12:08:25.131Z,12.02
2018-05-03T12:10:51.871Z,13.70
2018-05-03T12:13:18.721Z,12.07
2018-05-03T12:15:45.468Z,12.25
2018-05-03T12:18:12.207Z,14.27
2018-05-03T12:20:38.951Z,14.03
2018-05-03T12:23:05.704Z,13.87
2018-05-03T12:25:32.442Z,14.87
2018-05-03T12:27:59.133Z,13.30
2018-05-03T12:30:25.840Z,13.27
2018-05-03T12:32:53.504Z,14.80
2018-05-03T12:35:20.252Z,13.90
2018-05-03T12:37:46.888Z,17.70
2018-05-03T12:40:13.536Z,16.20
2018-05-03T12:42:40.276Z,13.87
2018-05-03T12:45:08.871Z,14.50
2018-05-03T12:47:35.670Z,12.63
2018-05-03T12:50:02.459Z,13.40
2018-05-03T12:52:29.100Z,13.07
2018-05-03T12:54:55.851Z,13.97
2018-05-03T12:57:22.695Z,13.23
2018-05-03T12:59:49.443Z,10.83
2018-05-03T13:02:16.398Z,14.63
2018-05-03T13:04:43.248Z,13.43
2018-05-03T13:07:09.989Z,14.10
2018-05-03T13:09:36.738Z,12.10
2018-05-03T13:12:03.379Z,11.50
2018-05-03T13:14:30.060Z,13.88
2018-05-03T13:16:56.757Z,12.20
2018-05-03T13:19:23.710Z,14.90
2018-05-03T13:21:51.483Z,12.75
2018-05-03T13:24:18.123Z,12.52
2018-05-03T13:26:44.873Z,12.37
2018-05-03T13:29:11.617Z,10.60
2018-05-03T13:31:38.365Z,14.77
2018-05-03T13:34:05.204Z,12.13
2018-05-03T13:36:31.954Z,15.13
2018-05-03T13:38:58.697Z,14.50
2018-05-03T13:41:25.455Z,12.20
2018-05-03T13:43:52.298Z,12.10
2018-05-03T13:46:19.038Z,11.13
2018-05-03T13:48:45.894Z,13.13
2018-05-03T13:51:12.633Z,12.40
2018-05-03T13:53:39.381Z,13.07
2018-05-03T13:56:06.222Z,12.40
2018-05-03T13:58:32.872Z,12.63
2018-05-03T14:00:59.617Z,12.67
2018-05-03T14:03:26.469Z,12.50
2018-05-03T14:05:53.103Z,13.73
2018-05-03T14:08:19.856Z,14.43
2018-05-03T14:10:46.699Z,13.63
2018-05-03T14:13:13.450Z,14.20
2018-05-03T14:15:40.299Z,14.00
2018-05-03T14:18:07.050Z,14.57
2018-05-03T14:20:33.892Z,14.40
2018-05-03T14:23:00.533Z,14.97
2018-05-03T14:25:27.224Z,16.20
2018-05-03T14:27:53.924Z,16.20
2018-05-03T14:30:20.663Z,15.47
2018-05-03T14:32:47.414Z,16.30
2018-05-03T14:35:14.258Z,17.67
2018-05-03T14:37:40.909Z,16.30
2018-05-03T14:40:07.648Z,15.73
2018-05-03T14:42:34.396Z,15.83
2018-05-03T14:45:01.157Z,16.13
2018-05-03T14:47:28.095Z,17.73
2018-05-03T14:49:54.781Z,20.90
2018-05-03T14:52:21.492Z,16.80
2018-05-03T14:54:48.224Z,15.17
2018-05-03T14:57:14.989Z,17.87
2018-05-03T14:59:41.713Z,17.10
2018-05-03T15:02:08.568Z,23.17
2018-05-03T15:04:35.205Z,19.33
2018-05-03T15:07:01.848Z,21.37
2018-05-03T15:09:28.599Z,19.57
2018-05-03T15:11:55.450Z,33.73
2018-05-03T15:14:22.188Z,31.57
2018-05-03T15:16:49.040Z,15.30
2018-05-03T15:19:15.990Z,0.20
2018-05-03T15:21:42.732Z,0.10
2018-05-03T15:24:09.600Z,0.17
2018-05-03T15:26:36.331Z,0.20
2018-05-03T15:29:03.892Z,0.33
2018-05-03T15:31:30.835Z,0.20
2018-05-03T15:33:57.585Z,0.20
2018-05-03T15:36:24.435Z,0.10
2018-05-03T15:38:51.276Z,0.20
2018-05-03T15:41:18.035Z,0.20
2018-05-03T15:43:44.772Z,0.17
2018-05-03T15:46:11.519Z,0.30
2018-05-03T15:48:38.270Z,0.23
2018-05-03T15:51:05.118Z,0.13
2018-05-03T15:53:31.964Z,0.20
2018-05-03T15:55:58.704Z,0.20
2018-05-03T15:58:52.771Z,0.20
2018-05-03T16:01:19.516Z,0.20
2018-05-03T16:03:46.276Z,0.20
2018-05-03T16:06:13.004Z,0.20
2018-05-03T16:08:39.757Z,0.40
2018-05-03T16:11:06.506Z,0.17
2018-05-03T16:13:33.244Z,0.20
2018-05-03T16:16:00.091Z,0.20
2018-05-03T16:18:26.739Z,0.30
2018-05-03T16:20:53.580Z,0.40
2018-05-03T16:23:20.335Z,0.10
2018-05-03T16:25:46.920Z,0.37
2018-05-03T16:28:13.662Z,0.20
2018-05-03T16:30:40.368Z,0.30
2018-05-03T16:33:07.112Z,0.20
2018-05-03T16:35:33.957Z,0.10
2018-05-03T16:38:00.696Z,0.20
2018-05-03T16:40:27.498Z,0.20
2018-05-03T16:42:54.306Z,0.30
2018-05-03T16:45:21.036Z,0.20
2018-05-03T16:47:47.681Z,0.20
2018-05-03T16:50:14.432Z,0.67
2018-05-03T16:52:41.180Z,0.20
2018-05-03T16:55:07.939Z,0.10
2018-05-03T16:57:34.874Z,0.27
2018-05-03T17:00:02.156Z,0.20
2018-05-03T17:02:28.886Z,0.30
2018-05-03T17:04:55.783Z,3.00
2018-05-03T19:22:52.274Z,12.10
2018-05-03T19:25:20.772Z,12.07
2018-05-03T19:27:49.236Z,11.40
2018-05-03T19:30:17.764Z,14.83
2018-05-03T19:46:45.787Z,20.30
2018-05-03T19:49:14.325Z,21.23
2018-05-03T19:51:42.840Z,23.20
2018-05-03T19:54:11.435Z,23.30
2018-05-03T19:56:39.972Z,23.10
2018-05-03T19:59:10.195Z,24.27
2018-05-03T20:01:38.782Z,26.93
2018-05-03T20:04:07.481Z,28.13
2018-05-03T20:06:36.186Z,27.57
2018-05-03T20:11:39.926Z,29.80
2018-05-03T20:14:08.434Z,27.87
2018-05-03T20:16:36.982Z,28.63
2018-05-03T20:19:05.611Z,30.87
2018-05-03T20:21:34.186Z,30.10
2018-05-03T20:24:02.758Z,30.33
2018-05-03T20:26:31.393Z,31.20
2018-05-03T20:29:00.272Z,32.07
2018-05-03T20:31:28.796Z,31.47
2018-05-03T20:33:57.374Z,30.13
2018-05-03T20:36:25.990Z,32.87
2018-05-03T20:38:54.681Z,32.37
2018-05-03T20:43:59.282Z,33.57
2018-05-03T20:46:28.631Z,33.40
2018-05-03T20:51:33.604Z,35.43
2018-05-03T20:54:02.175Z,36.87
2018-05-03T20:59:09.788Z,41.30
2018-05-03T21:01:38.320Z,36.93
2018-05-03T21:04:06.928Z,32.73
2018-05-03T21:06:35.527Z,38.47
2018-05-03T21:09:04.411Z,37.50
2018-05-03T21:11:33.578Z,31.93
2018-05-03T21:14:02.241Z,34.10
2018-05-03T21:16:31.392Z,32.40
2018-05-03T21:18:59.975Z,33.77
2018-05-03T21:21:28.508Z,30.43
2018-05-03T21:23:57.057Z,29.33
2018-05-03T21:28:58.985Z,29.43
2018-05-03T21:34:03.559Z,28.43
2018-05-03T21:36:32.170Z,29.00
2018-05-03T21:39:00.836Z,28.77
2018-05-03T21:41:29.519Z,27.73
2018-05-03T21:43:58.457Z,28.40
2018-05-03T21:46:27.162Z,26.10
2018-05-03T21:48:55.773Z,24.97
2018-05-03T21:51:24.337Z,25.17
2018-05-03T21:53:52.877Z,28.33
2018-05-03T21:56:21.477Z,24.77
2018-05-03T21:58:50.162Z,24.67
2018-05-03T22:01:18.904Z,22.47
2018-05-03T22:06:20.265Z,22.63
2018-05-03T22:08:48.878Z,19.33
2018-05-03T22:11:17.424Z,18.87
2018-05-03T22:13:46.067Z,19.17
2018-05-03T22:16:14.993Z,17.73
2018-05-03T22:18:43.510Z,15.23
2018-05-03T22:23:44.837Z,13.67
2018-05-03T22:26:13.402Z,12.53
2018-05-03T22:31:17.654Z,12.27
2018-05-03T22:33:46.271Z,11.70
2018-05-03T22:36:14.790Z,12.23
2018-05-03T22:38:43.311Z,12.23
2018-05-03T22:41:11.794Z,11.13
2018-05-03T22:43:40.332Z,14.27
2018-05-03T22:46:08.859Z,11.83
2018-05-03T22:48:37.357Z,10.73
2018-05-03T22:51:05.999Z,11.97
2018-05-03T22:53:34.511Z,12.50
2018-05-03T22:58:35.776Z,12.50
2018-05-03T23:03:37.222Z,10.63
2018-05-03T23:06:05.753Z,12.20
2018-05-03T23:08:34.335Z,10.60
2018-05-03T23:11:03.009Z,10.70
2018-05-03T23:13:31.589Z,13.87
2018-05-03T23:16:00.216Z,14.03
2018-05-03T23:21:02.012Z,16.70
2018-05-03T23:23:30.532Z,12.27
2018-05-03T23:25:59.122Z,12.47
2018-05-03T23:28:27.809Z,13.60
2018-05-03T23:30:56.375Z,13.33
2018-05-03T23:33:24.942Z,13.37
2018-05-03T23:35:53.489Z,14.00
2018-05-03T23:40:54.714Z,16.03
2018-05-03T23:43:23.276Z,14.63
2018-05-03T23:45:51.799Z,16.83
2018-05-03T23:48:20.289Z,15.70
2018-05-03T23:50:48.837Z,19.27
2018-05-03T23:53:17.376Z,14.77
2018-05-03T23:55:45.952Z,15.87
2018-05-03T23:58:14.639Z,17.30
